West End, New York
Current Conditions -  °F | °C
As of 7:55 PM on Monday 26 Jan 2015 (Local Time) from KNY0 Reporting Station
Overcast Overcast  
Wind Chill:   Ceiling: 4800
Heat Index: 15°   Visibility: 10mi
Dew Point:   Wind: 10mph
Humidity: 58%   Direction: 60°ENE
Pressure: 29.97"   Gusts: 16mph
Location:  42.4787°N, 75.0181°W
Report Text: KNY0 270055Z AUTO 06009G14KT 10SM BKN048 OVC055 M10/M17 A2997 RMK AO2 T10971166
Loading
Personal Weather Stations






























Interactive Weather Map New forecast layout! Learn more

10-Day Weather Forecast

Advertisements
Track Severe Weather on mobile